createdAt,value
2019-03-26T00:00:38.119Z,81.82
2019-03-26T00:03:06.415Z,81.78
2019-03-26T00:05:34.738Z,81.63
2019-03-26T00:08:03.041Z,81.74
2019-03-26T00:10:31.387Z,81.98
2019-03-26T00:12:59.679Z,82.11
2019-03-26T00:15:28.322Z,82.00
2019-03-26T00:17:59.619Z,82.00
2019-03-26T00:20:28.514Z,82.29
2019-03-26T00:22:56.820Z,82.48
2019-03-26T00:25:25.159Z,82.61
2019-03-26T00:27:53.465Z,82.57
2019-03-26T00:30:21.784Z,82.44
2019-03-26T00:32:50.096Z,82.44
2019-03-26T00:35:18.399Z,82.38
2019-03-26T00:37:47.020Z,82.30
2019-03-26T00:40:15.336Z,82.09
2019-03-26T00:42:43.765Z,82.02
2019-03-26T00:45:12.192Z,81.98
2019-03-26T00:47:40.531Z,82.17
2019-03-26T00:50:09.325Z,82.21
2019-03-26T00:52:37.644Z,82.20
2019-03-26T00:55:21.730Z,82.14
2019-03-26T00:57:38.009Z,81.83
2019-03-26T01:00:08.203Z,81.55
2019-03-26T01:02:36.834Z,81.85
2019-03-26T01:05:07.076Z,81.85
2019-03-26T01:07:35.388Z,82.00
2019-03-26T01:10:06.552Z,82.00
2019-03-26T01:12:34.947Z,81.58
2019-03-26T01:15:04.880Z,81.63
2019-03-26T01:17:33.211Z,81.82
2019-03-26T01:20:01.841Z,81.71
2019-03-26T01:22:30.147Z,81.79
2019-03-26T01:24:58.532Z,81.79
2019-03-26T01:27:26.860Z,81.47
2019-03-26T01:29:55.160Z,81.12
2019-03-26T01:32:23.478Z,80.78
2019-03-26T01:34:51.833Z,80.77
2019-03-26T01:37:20.140Z,80.96
2019-03-26T01:39:48.428Z,79.96
2019-03-26T01:42:16.742Z,80.53
2019-03-26T01:44:45.056Z,80.50
2019-03-26T01:47:13.369Z,80.50
2019-03-26T01:49:41.988Z,80.64
2019-03-26T01:52:10.297Z,80.28
2019-03-26T01:54:38.587Z,80.10
2019-03-26T01:57:07.213Z,79.89
2019-03-26T01:59:35.509Z,79.44
2019-03-26T02:02:04.289Z,79.11
2019-03-26T02:04:32.585Z,78.60
2019-03-26T02:07:00.923Z,77.72
2019-03-26T02:09:29.208Z,77.29
2019-03-26T02:11:57.524Z,77.16
2019-03-26T02:14:26.066Z,76.89
2019-03-26T02:16:54.390Z,76.81
2019-03-26T02:19:22.692Z,76.59
2019-03-26T02:21:51.310Z,76.45
2019-03-26T02:24:19.915Z,76.41
2019-03-26T02:26:48.210Z,76.65
2019-03-26T02:29:16.524Z,76.92
2019-03-26T02:31:44.826Z,76.88
2019-03-26T02:34:13.133Z,76.73
2019-03-26T02:36:41.413Z,76.46
2019-03-26T02:39:09.807Z,76.27
2019-03-26T02:41:38.323Z,76.21
2019-03-26T02:44:06.659Z,76.38
2019-03-26T02:46:35.309Z,76.49
2019-03-26T02:49:03.872Z,76.75
2019-03-26T02:51:32.186Z,76.55
2019-03-26T02:54:00.488Z,76.64
2019-03-26T02:56:28.858Z,76.68
2019-03-26T02:58:57.159Z,76.78
2019-03-26T03:01:25.458Z,76.73
2019-03-26T03:03:53.832Z,76.62
2019-03-26T03:06:22.391Z,76.53
2019-03-26T03:08:50.696Z,76.29
2019-03-26T03:11:19.000Z,75.65
2019-03-26T03:13:47.314Z,75.16
2019-03-26T03:16:15.600Z,74.88
2019-03-26T03:18:43.900Z,74.28
2019-03-26T03:21:12.200Z,74.09
2019-03-26T03:23:40.497Z,74.16
2019-03-26T03:26:08.798Z,74.07
2019-03-26T03:28:37.530Z,74.28
2019-03-26T03:31:05.837Z,74.31
2019-03-26T03:33:34.167Z,74.17
2019-03-26T03:36:02.491Z,74.36
2019-03-26T03:38:30.794Z,74.61
2019-03-26T03:40:59.102Z,74.71
2019-03-26T03:43:27.377Z,74.49
2019-03-26T03:45:56.272Z,74.71
2019-03-26T03:48:24.738Z,75.00
2019-03-26T03:50:53.721Z,74.99
2019-03-26T03:53:22.958Z,75.07
2019-03-26T03:55:51.565Z,74.95
2019-03-26T03:58:21.710Z,75.05
2019-03-26T04:00:50.029Z,75.22
2019-03-26T04:03:18.613Z,75.06
2019-03-26T04:05:47.214Z,75.04
2019-03-26T04:08:15.506Z,75.28
2019-03-26T04:10:43.814Z,75.50
2019-03-26T04:13:12.556Z,75.41
2019-03-26T04:15:40.870Z,75.09
2019-03-26T04:18:09.512Z,75.09
2019-03-26T04:20:43.514Z,74.68
2019-03-26T04:23:11.810Z,74.93
2019-03-26T04:25:40.105Z,74.99
2019-03-26T04:28:08.578Z,75.20
2019-03-26T04:30:37.083Z,74.95
2019-03-26T04:33:05.540Z,75.11
2019-03-26T04:35:33.829Z,75.01
2019-03-26T04:38:02.123Z,74.64
2019-03-26T04:40:30.450Z,74.65
2019-03-26T04:42:58.828Z,74.78
2019-03-26T04:45:27.137Z,74.84
2019-03-26T04:47:55.792Z,74.77
2019-03-26T04:50:24.143Z,74.94
2019-03-26T04:52:52.457Z,74.77
2019-03-26T04:55:21.022Z,74.74
2019-03-26T04:57:49.379Z,74.78
2019-03-26T05:00:18.078Z,74.64
2019-03-26T05:02:46.345Z,74.64
2019-03-26T05:05:14.646Z,74.61
2019-03-26T05:07:42.966Z,74.86
2019-03-26T05:10:11.956Z,75.19
2019-03-26T05:12:40.354Z,75.33
2019-03-26T05:15:08.722Z,75.50
2019-03-26T05:17:37.038Z,75.65
2019-03-26T05:20:07.091Z,75.76
2019-03-26T05:22:35.841Z,75.92
2019-03-26T05:25:07.769Z,75.95
2019-03-26T05:27:45.372Z,75.77
2019-03-26T05:30:07.831Z,75.43
2019-03-26T05:32:36.435Z,75.65
2019-03-26T05:35:05.294Z,75.72
2019-03-26T05:37:33.860Z,75.86
2019-03-26T05:40:02.588Z,75.86
2019-03-26T05:42:31.275Z,75.78
2019-03-26T05:44:59.686Z,75.36
2019-03-26T05:47:28.010Z,75.19
2019-03-26T05:49:56.337Z,74.97
2019-03-26T05:52:25.054Z,74.24
2019-03-26T05:54:53.349Z,72.91
2019-03-26T05:57:21.717Z,71.35
2019-03-26T05:59:50.288Z,70.82
2019-03-26T06:02:18.600Z,69.71
2019-03-26T06:04:46.920Z,68.87
2019-03-26T06:07:15.215Z,67.93
2019-03-26T06:09:43.512Z,68.23
2019-03-26T06:12:11.800Z,67.86
2019-03-26T06:14:40.117Z,67.09
2019-03-26T06:17:08.771Z,66.83
2019-03-26T06:19:37.113Z,66.92
2019-03-26T06:22:05.746Z,66.40
2019-03-26T06:24:34.063Z,66.37
2019-03-26T06:27:02.416Z,66.14
2019-03-26T06:29:30.738Z,66.36
2019-03-26T06:31:59.046Z,66.64
2019-03-26T06:34:27.351Z,67.07
2019-03-26T06:36:55.906Z,67.22
2019-03-26T06:39:24.452Z,67.20
2019-03-26T06:41:52.768Z,66.84
2019-03-26T06:44:21.052Z,66.68
2019-03-26T06:46:49.370Z,66.76
2019-03-26T06:49:17.733Z,66.62
2019-03-26T06:51:46.394Z,66.77
2019-03-26T06:54:15.077Z,66.89
2019-03-26T06:56:43.415Z,67.43
2019-03-26T06:59:11.772Z,67.44
2019-03-26T07:01:40.069Z,68.12
2019-03-26T07:04:08.381Z,67.52
2019-03-26T07:06:36.691Z,68.43
2019-03-26T07:09:07.063Z,69.12
2019-03-26T07:11:35.604Z,69.42
2019-03-26T07:14:04.195Z,69.61
2019-03-26T07:16:32.490Z,69.92
2019-03-26T07:19:00.807Z,69.61
2019-03-26T07:21:29.094Z,68.94
2019-03-26T07:23:57.409Z,68.67
2019-03-26T07:26:25.760Z,68.45
2019-03-26T07:28:56.652Z,68.56
2019-03-26T07:31:24.085Z,69.07
2019-03-26T07:33:52.371Z,69.37
2019-03-26T07:36:20.724Z,69.29
2019-03-26T07:38:49.022Z,68.71
2019-03-26T07:41:18.206Z,67.87
2019-03-26T07:43:46.858Z,68.08
2019-03-26T07:46:15.224Z,68.57
2019-03-26T07:48:43.648Z,67.24
2019-03-26T07:51:11.966Z,65.71
2019-03-26T07:53:40.325Z,65.89
2019-03-26T07:56:08.653Z,65.32
2019-03-26T07:58:36.958Z,65.72
2019-03-26T08:01:05.263Z,65.52
2019-03-26T08:03:33.564Z,65.52
2019-03-26T08:06:02.303Z,63.90
2019-03-26T08:08:31.046Z,63.51
2019-03-26T08:10:59.344Z,63.64
2019-03-26T08:13:27.659Z,64.45
2019-03-26T08:15:55.972Z,63.71
2019-03-26T08:18:24.561Z,63.09
2019-03-26T08:20:52.855Z,63.12
2019-03-26T08:23:21.432Z,63.30
2019-03-26T08:25:49.788Z,63.52
2019-03-26T08:28:18.105Z,63.15
2019-03-26T08:30:49.903Z,62.99
2019-03-26T08:33:16.797Z,62.57
2019-03-26T08:35:45.351Z,63.09
2019-03-26T08:38:13.666Z,63.50
2019-03-26T08:40:42.928Z,63.62
2019-03-26T08:43:11.233Z,63.49
2019-03-26T08:45:39.547Z,63.77
2019-03-26T08:48:07.830Z,63.48
2019-03-26T08:50:36.138Z,63.16
2019-03-26T08:53:04.832Z,63.14
2019-03-26T08:55:33.414Z,63.33
2019-03-26T08:58:01.718Z,62.69
2019-03-26T09:00:32.038Z,62.46
2019-03-26T09:03:00.123Z,62.49
2019-03-26T09:05:28.424Z,61.77
2019-03-26T09:07:56.812Z,61.56
2019-03-26T09:10:25.113Z,61.32
2019-03-26T09:12:53.434Z,61.81
2019-03-26T09:15:21.972Z,62.69
2019-03-26T09:17:50.534Z,63.11
2019-03-26T09:20:19.148Z,62.67
2019-03-26T09:22:47.464Z,62.21
2019-03-26T09:25:15.933Z,61.78
2019-03-26T09:27:44.256Z,59.90
2019-03-26T09:30:12.998Z,59.15
2019-03-26T09:32:41.327Z,59.39
2019-03-26T09:35:09.969Z,59.29
2019-03-26T09:37:38.609Z,59.08
2019-03-26T09:40:08.551Z,58.32
2019-03-26T09:42:37.527Z,58.08
2019-03-26T09:45:10.918Z,56.99
2019-03-26T09:47:39.210Z,56.71
2019-03-26T09:50:09.719Z,56.05
2019-03-26T09:52:38.016Z,56.11
2019-03-26T09:55:07.480Z,56.01
2019-03-26T09:57:37.113Z,56.49
2019-03-26T10:00:13.253Z,58.14
2019-03-26T10:02:43.388Z,59.09
2019-03-26T10:05:12.488Z,59.35
2019-03-26T10:07:40.790Z,57.53
2019-03-26T10:10:09.553Z,59.26
2019-03-26T10:12:37.941Z,60.71
2019-03-26T10:15:09.727Z,60.66
2019-03-26T10:17:38.014Z,60.22
2019-03-26T10:20:07.069Z,61.13
2019-03-26T10:22:36.904Z,61.23
2019-03-26T10:25:06.714Z,61.50
2019-03-26T10:27:35.357Z,61.97
2019-03-26T10:30:05.972Z,62.31
2019-03-26T10:32:34.685Z,62.50
2019-03-26T10:35:03.286Z,62.65
2019-03-26T10:37:31.635Z,62.15
2019-03-26T10:39:59.891Z,61.98
2019-03-26T10:42:28.206Z,62.19
2019-03-26T10:44:56.528Z,62.98
2019-03-26T10:47:25.002Z,63.19
2019-03-26T10:49:53.293Z,62.56
2019-03-26T10:52:21.950Z,63.14
2019-03-26T10:54:50.505Z,62.82
2019-03-26T10:57:21.794Z,62.89
2019-03-26T10:59:48.842Z,61.63
2019-03-26T11:02:17.483Z,61.42
2019-03-26T11:04:45.768Z,61.20
2019-03-26T11:07:14.082Z,61.33
2019-03-26T11:09:42.393Z,61.06
2019-03-26T11:12:11.005Z,60.96
2019-03-26T11:14:39.581Z,60.35
2019-03-26T11:17:07.887Z,60.62
2019-03-26T11:19:36.207Z,60.40
2019-03-26T11:22:04.507Z,60.03
2019-03-26T11:24:32.840Z,59.73
2019-03-26T11:27:01.303Z,59.29
2019-03-26T11:29:29.960Z,58.84
2019-03-26T11:31:58.262Z,58.84
2019-03-26T11:34:26.584Z,58.65
2019-03-26T11:36:54.882Z,58.36
2019-03-26T11:39:32.634Z,59.19
2019-03-26T11:41:53.611Z,59.49
2019-03-26T11:44:21.905Z,58.08
2019-03-26T11:46:50.302Z,58.52
2019-03-26T11:49:18.687Z,57.73
2019-03-26T11:51:46.981Z,57.57
2019-03-26T11:54:15.270Z,57.46
2019-03-26T11:56:43.572Z,57.44
2019-03-26T11:59:11.880Z,57.79
2019-03-26T12:01:40.522Z,58.41
2019-03-26T12:04:08.823Z,57.58
2019-03-26T12:06:37.204Z,57.70
2019-03-26T12:09:07.544Z,57.45
2019-03-26T12:11:36.028Z,56.90
2019-03-26T12:14:04.684Z,56.51
2019-03-26T12:16:32.982Z,56.98
2019-03-26T12:19:01.630Z,57.66
2019-03-26T12:21:30.212Z,58.76
2019-03-26T12:23:58.818Z,58.82
2019-03-26T12:26:27.211Z,59.13
2019-03-26T12:28:55.880Z,59.70
2019-03-26T12:31:24.445Z,60.29
2019-03-26T12:33:52.753Z,59.77
2019-03-26T12:36:21.050Z,60.70
2019-03-26T12:38:49.706Z,60.98
2019-03-26T12:41:17.995Z,63.71
2019-03-26T12:43:46.311Z,66.75
2019-03-26T12:46:14.622Z,69.26
2019-03-26T12:48:43.317Z,72.07
2019-03-26T12:51:11.621Z,73.78
2019-03-26T12:53:39.942Z,74.76
2019-03-26T12:56:08.238Z,74.94
2019-03-26T12:58:36.867Z,76.16
2019-03-26T13:01:05.210Z,76.86
2019-03-26T13:03:33.500Z,76.87
2019-03-26T13:06:02.148Z,76.87
2019-03-26T13:08:30.731Z,76.20
2019-03-26T13:10:59.049Z,76.55
2019-03-26T13:13:27.708Z,75.70
2019-03-26T13:15:56.025Z,74.62
2019-03-26T13:18:24.333Z,72.88
2019-03-26T13:20:52.940Z,73.22
2019-03-26T13:23:21.524Z,72.12
2019-03-26T13:25:49.828Z,72.17
2019-03-26T13:28:18.491Z,71.12
2019-03-26T13:30:46.804Z,71.04
2019-03-26T13:33:15.459Z,70.32
2019-03-26T13:35:43.760Z,70.20
2019-03-26T13:38:12.067Z,69.88
2019-03-26T13:40:40.361Z,70.21
2019-03-26T13:43:08.669Z,70.56
2019-03-26T13:45:36.976Z,70.74
2019-03-26T13:48:05.264Z,71.08
2019-03-26T13:50:33.574Z,69.14
2019-03-26T13:53:01.877Z,70.46
2019-03-26T13:55:30.186Z,70.63
2019-03-26T13:57:58.478Z,70.92
2019-03-26T14:00:34.743Z,70.69
2019-03-26T14:03:03.425Z,70.72
2019-03-26T14:05:31.722Z,71.05
2019-03-26T14:08:00.036Z,71.61
2019-03-26T14:10:40.139Z,71.59
2019-03-26T14:12:58.367Z,72.40
2019-03-26T14:15:26.689Z,72.27
2019-03-26T14:17:55.298Z,73.44
2019-03-26T14:20:24.058Z,73.78
2019-03-26T14:22:52.397Z,74.71
2019-03-26T14:25:21.030Z,75.81
2019-03-26T14:27:49.341Z,75.96
2019-03-26T14:30:23.708Z,75.98
2019-03-26T14:32:52.022Z,75.02
2019-03-26T14:35:20.352Z,76.40
2019-03-26T14:37:51.425Z,76.42
2019-03-26T14:40:19.010Z,76.39
2019-03-26T14:42:47.558Z,76.72
2019-03-26T14:45:16.227Z,76.84
2019-03-26T14:47:44.534Z,76.19
2019-03-26T14:50:13.130Z,75.97
2019-03-26T14:52:41.912Z,75.82
2019-03-26T14:55:10.412Z,75.21
2019-03-26T14:57:38.989Z,74.29
2019-03-26T15:00:08.300Z,74.43
2019-03-26T15:02:36.602Z,74.52
2019-03-26T15:05:07.425Z,73.47
2019-03-26T15:07:35.727Z,72.02
2019-03-26T15:10:08.265Z,72.28
2019-03-26T15:12:36.574Z,72.83
2019-03-26T15:15:06.055Z,73.22
2019-03-26T15:17:34.348Z,72.77
2019-03-26T15:20:02.843Z,72.57
2019-03-26T15:22:31.126Z,71.84
2019-03-26T15:24:59.633Z,71.71
2019-03-26T15:27:28.018Z,70.81
2019-03-26T15:29:56.317Z,70.34
2019-03-26T15:32:24.667Z,70.01
2019-03-26T15:34:52.949Z,68.74
2019-03-26T15:37:21.614Z,68.63
2019-03-26T15:39:50.211Z,68.81
2019-03-26T15:42:18.533Z,68.62
2019-03-26T15:44:47.180Z,68.85
2019-03-26T15:47:16.390Z,69.03
2019-03-26T15:49:45.066Z,69.17
2019-03-26T15:52:13.658Z,68.91
2019-03-26T15:54:41.940Z,69.02
2019-03-26T15:57:10.599Z,69.34
2019-03-26T15:59:38.912Z,69.30
2019-03-26T16:02:07.214Z,69.27
2019-03-26T16:04:35.868Z,69.88
2019-03-26T16:07:04.521Z,70.54
2019-03-26T16:09:32.843Z,70.83
2019-03-26T16:12:01.147Z,70.44
2019-03-26T16:14:29.538Z,70.63
2019-03-26T16:16:57.918Z,70.40
2019-03-26T16:19:32.276Z,70.64
2019-03-26T16:21:56.359Z,71.00
2019-03-26T16:24:24.666Z,71.49
2019-03-26T16:26:52.983Z,71.59
2019-03-26T16:29:21.292Z,71.32
2019-03-26T16:31:49.949Z,71.94
2019-03-26T16:34:18.349Z,71.94
2019-03-26T16:36:58.748Z,72.31
2019-03-26T16:39:17.020Z,72.24
2019-03-26T16:41:49.152Z,72.02
2019-03-26T16:44:15.625Z,72.31
2019-03-26T16:46:43.935Z,72.53
2019-03-26T16:49:12.255Z,72.50
2019-03-26T16:51:40.575Z,72.64
2019-03-26T16:54:09.245Z,72.96
2019-03-26T16:56:37.573Z,73.10
2019-03-26T16:59:05.873Z,71.90
2019-03-26T17:01:35.459Z,72.44
2019-03-26T17:04:04.088Z,72.61
2019-03-26T17:06:32.403Z,72.13
2019-03-26T17:09:00.723Z,72.26
2019-03-26T17:11:29.004Z,72.37
2019-03-26T17:13:57.312Z,72.01
2019-03-26T17:16:25.610Z,71.58
2019-03-26T17:18:54.260Z,71.49
2019-03-26T17:21:22.589Z,71.51
2019-03-26T17:23:50.978Z,71.35
2019-03-26T17:26:19.291Z,71.11
2019-03-26T17:28:47.580Z,70.74
2019-03-26T17:31:16.001Z,71.08
2019-03-26T17:33:44.292Z,71.47
2019-03-26T17:36:12.916Z,71.66
2019-03-26T17:38:41.485Z,71.68
2019-03-26T17:41:09.796Z,71.96
2019-03-26T17:43:38.097Z,72.08
2019-03-26T17:46:06.400Z,72.32
2019-03-26T17:48:34.719Z,72.61
2019-03-26T17:51:03.034Z,72.77
2019-03-26T17:53:31.365Z,72.56
2019-03-26T17:55:59.667Z,72.72
2019-03-26T17:58:28.004Z,73.24
2019-03-26T18:00:56.347Z,73.40
2019-03-26T18:03:26.623Z,73.72
2019-03-26T18:05:55.529Z,73.84
2019-03-26T18:08:23.862Z,73.89
2019-03-26T18:10:52.477Z,74.09
2019-03-26T18:13:20.794Z,74.29
2019-03-26T18:15:49.752Z,74.30
2019-03-26T18:18:18.034Z,74.35
2019-03-26T18:20:46.338Z,74.50
2019-03-26T18:23:14.648Z,74.55
2019-03-26T18:25:42.964Z,74.55
2019-03-26T18:28:11.261Z,74.51
2019-03-26T18:30:39.653Z,74.47
2019-03-26T18:33:08.005Z,74.61
2019-03-26T18:35:36.309Z,74.63
2019-03-26T18:38:04.606Z,74.80
2019-03-26T18:40:32.939Z,74.69
2019-03-26T18:43:01.258Z,74.67
2019-03-26T18:45:29.882Z,74.49
2019-03-26T18:47:58.173Z,74.71
2019-03-26T18:50:26.482Z,75.05
2019-03-26T18:52:54.790Z,75.05
2019-03-26T18:55:25.220Z,74.59
2019-03-26T18:57:53.118Z,74.42
2019-03-26T19:00:32.445Z,74.47
2019-03-26T19:03:00.763Z,74.55
2019-03-26T19:05:29.057Z,74.57
2019-03-26T19:07:57.396Z,74.08
2019-03-26T19:10:27.792Z,74.00
2019-03-26T19:12:57.248Z,74.15
2019-03-26T19:15:25.831Z,74.29
2019-03-26T19:17:54.149Z,74.53
2019-03-26T19:20:22.452Z,74.52
2019-03-26T19:22:51.040Z,74.64
2019-03-26T19:25:19.361Z,74.79
2019-03-26T19:27:47.682Z,74.77
2019-03-26T19:30:16.143Z,74.94
2019-03-26T19:32:44.447Z,75.12
2019-03-26T19:35:12.774Z,75.11
2019-03-26T19:37:41.081Z,75.23
2019-03-26T19:40:09.579Z,75.11
2019-03-26T19:42:37.903Z,75.16
2019-03-26T19:45:06.479Z,75.08
2019-03-26T19:47:34.780Z,75.17
2019-03-26T19:50:03.750Z,75.19
2019-03-26T19:52:32.080Z,75.37
2019-03-26T19:55:01.028Z,75.45
2019-03-26T19:57:29.799Z,75.47
2019-03-26T19:59:58.100Z,75.49
2019-03-26T20:02:26.720Z,75.70
2019-03-26T20:04:55.011Z,75.85
2019-03-26T20:07:23.330Z,75.80
2019-03-26T20:09:51.633Z,76.02
2019-03-26T20:12:19.958Z,76.03
2019-03-26T20:14:48.269Z,76.15
2019-03-26T20:17:16.877Z,76.15
2019-03-26T20:19:45.191Z,76.20
2019-03-26T20:22:13.502Z,76.30
2019-03-26T20:24:41.868Z,76.25
2019-03-26T20:27:10.192Z,76.28
2019-03-26T20:29:38.511Z,76.28
2019-03-26T20:32:06.820Z,76.18
2019-03-26T20:34:35.135Z,76.33
2019-03-26T20:37:03.429Z,76.38
2019-03-26T20:39:31.761Z,76.17
2019-03-26T20:42:00.360Z,76.27
2019-03-26T20:44:28.675Z,76.14
2019-03-26T20:46:56.981Z,76.13
2019-03-26T20:49:25.302Z,75.90
2019-03-26T20:51:53.695Z,75.96
2019-03-26T20:54:22.038Z,75.92
2019-03-26T20:56:50.418Z,75.79
2019-03-26T20:59:18.751Z,75.64
2019-03-26T21:01:47.044Z,75.45
2019-03-26T21:04:15.366Z,75.41
2019-03-26T21:06:43.685Z,75.51
2019-03-26T21:09:12.015Z,75.41
2019-03-26T21:11:40.305Z,75.26
2019-03-26T21:14:08.629Z,74.80
2019-03-26T21:16:36.927Z,74.43
2019-03-26T21:19:05.256Z,74.37
2019-03-26T21:21:33.594Z,74.52
2019-03-26T21:24:01.889Z,74.66
2019-03-26T21:26:30.213Z,74.51
2019-03-26T21:28:58.534Z,74.45
2019-03-26T21:31:26.838Z,74.01
2019-03-26T21:33:55.139Z,74.19
2019-03-26T21:36:23.462Z,74.05
2019-03-26T21:38:51.762Z,74.06
2019-03-26T21:41:20.074Z,74.16
2019-03-26T21:43:48.458Z,74.16
2019-03-26T21:46:16.754Z,74.02
2019-03-26T21:48:45.576Z,73.93
2019-03-26T21:51:13.864Z,73.88
2019-03-26T21:53:42.176Z,73.79
2019-03-26T21:56:10.479Z,73.85
2019-03-26T21:58:38.808Z,73.57
2019-03-26T22:01:07.081Z,73.65
2019-03-26T22:03:35.396Z,73.39
2019-03-26T22:06:03.997Z,73.49
2019-03-26T22:08:32.318Z,73.59
2019-03-26T22:11:00.618Z,73.76
2019-03-26T22:13:28.912Z,73.99
2019-03-26T22:15:57.240Z,73.93
2019-03-26T22:18:25.531Z,74.01
2019-03-26T22:20:53.870Z,74.16
2019-03-26T22:23:22.451Z,74.25
2019-03-26T22:25:51.024Z,74.38
2019-03-26T22:28:19.608Z,74.47
2019-03-26T22:30:47.908Z,74.44
2019-03-26T22:33:16.580Z,74.35
2019-03-26T22:35:44.873Z,74.44
2019-03-26T22:38:13.556Z,74.62
2019-03-26T22:40:41.858Z,74.72
2019-03-26T22:43:10.162Z,74.92
2019-03-26T22:45:38.477Z,75.10
2019-03-26T22:48:06.767Z,75.26
2019-03-26T22:50:35.066Z,75.44
2019-03-26T22:53:03.438Z,75.38
2019-03-26T22:55:31.739Z,75.49
2019-03-26T22:58:00.368Z,75.65
2019-03-26T23:00:30.393Z,75.84
2019-03-26T23:02:58.689Z,75.93
2019-03-26T23:05:27.012Z,76.06
2019-03-26T23:07:55.293Z,76.07
2019-03-26T23:10:23.609Z,76.22
2019-03-26T23:12:51.926Z,76.45
2019-03-26T23:15:22.875Z,76.61
2019-03-26T23:17:51.425Z,76.75
2019-03-26T23:20:19.784Z,76.97
2019-03-26T23:22:48.446Z,76.94
2019-03-26T23:25:16.729Z,77.18
2019-03-26T23:27:45.427Z,77.49
2019-03-26T23:30:13.942Z,77.76
2019-03-26T23:32:42.676Z,77.94
2019-03-26T23:35:11.158Z,78.10
2019-03-26T23:37:39.476Z,78.37
2019-03-26T23:40:08.323Z,78.50
2019-03-26T23:42:36.715Z,78.67
2019-03-26T23:45:08.323Z,78.88
2019-03-26T23:47:36.945Z,78.97
2019-03-26T23:50:08.085Z,79.05
2019-03-26T23:52:36.523Z,79.10
2019-03-26T23:55:06.562Z,79.24
2019-03-26T23:57:37.430Z,79.32
